Terminal Aerodrome Forecast
Issued by NWS Pocatello, ID

Home | Current Version | Previous Version | Text Only | Print | Product List | Glossary On
Versions: 1 2 3 4 5 6 7 8 9 10 11 12 13 14 15 16 17 18 19 20 21 22 23
000
FTUS45 KPIH 270608 CCA
TAFBYI
TAF COR
KBYI 270608Z 2706/2806 25015G25KT P6SM VCSH SCT015 BKN070
      TEMPO 2706/2710 BKN015
     FM271400 27020G30KT P6SM SCT008 SCT070
     FM271700 29025G35KT P6SM SCT025 SCT080
     FM272000 29030G40KT P6SM SCT040
     FM280100 27015G25KT P6SM BKN040=

USA.gov is the U.S. government's official web portal to all federal, state and local government web resources and services.